Nearby METAR Reports

 

KLOT - Romeoville/Chi, Illinois, USA
Distance from station: N 3mi, 5km
Updated: Sat, 21-Jul-2018 3:55pm CDT
Overcast
Overcast
 Wind from N
Wind: N 13 mph , 20 km/h, Gust: 22 mph , 35 km/h
Temperature: 77°F , 25°C
Dew Point: 66°F , 19°C
Humidity: 69%
Barometer: 29.79 inHg , 1008.8 hPa
Clouds: Overcast
Visibility: 10 miles , 16 km
Cloud details: Partly cloudy 3000 ft
Mostly cloudy 4500 ft
Overcast 7000 ft
2018/07/21 20:55 KLOT 212055Z AUTO 36011G19KT 10SM SCT030 BKN045 OVC070 25/19 A2979 RMK AO2 T02520186
KJOT - Joliet, Illinois, USA
Distance from station: WSW 5mi, 7km
Updated: Sat, 21-Jul-2018 3:55pm CDT
Overcast
Overcast
 Wind from NNW
Wind: NNW 12 mph , 19 km/h, Gust: 22 mph , 35 km/h
Temperature: 81°F , 27°C
Heat Index: 84°F , 29°C
Dew Point: 68°F , 20°C
Humidity: 66%
Barometer: 29.78 inHg , 1008.5 hPa
Clouds: Overcast
Visibility: 10 miles , 16 km
Cloud details: Mostly cloudy 3300 ft
Mostly cloudy 4100 ft
Overcast 4700 ft
2018/07/21 20:55 KJOT 212055Z AUTO 34010G19KT 10SM BKN033 BKN041 OVC047 27/20 A2978 RMK AO2 60001 T02670198
 
KC09 - Morris-Washburn, Illinois, USA
Distance from station: WSW 18mi, 29km
Updated: Sat, 21-Jul-2018 3:55pm CDT
Mostly cloudy
Mostly cloudy
 Wind from NNW
Wind: NNW 7 mph , 11 km/h, Gust: 16 mph , 26 km/h
Temperature: 79°F , 26°C
Dew Point: 68°F , 20°C
Humidity: 70%
Barometer: 29.78 inHg , 1008.5 hPa
Clouds: Mostly cloudy
Visibility: 10 miles , 16 km
Cloud details: Partly cloudy 3200 ft
Partly cloudy 6000 ft
Mostly cloudy 8500 ft
2018/07/21 20:55 KC09 212055Z AUTO 33006G14KT 10SM SCT032 SCT060 BKN085 26/20 A2978 RMK AO2 T02600198
KARR - Chicago/Aurora, Illinois, USA
Distance from station: NW 24mi, 39km
Updated: Sat, 21-Jul-2018 3:52pm CDT
Few Clouds
Few Clouds
 Wind from NNW
Wind: NNW 15 mph , 24 km/h, Gust: 24 mph , 39 km/h
Temperature: 81°F , 27°C
Heat Index: 83°F , 28°C
Dew Point: 66°F , 19°C
Humidity: 62%
Barometer: 29.79 inHg , 1008.8 hPa
Clouds: Few Clouds
Visibility: 10 miles , 16 km
Cloud details: Few Clouds 3400 ft
2018/07/21 20:52 KARR 212052Z 33013G21KT 10SM FEW034 27/19 A2979 RMK AO2 SLP083 T02670189 53003
 
KMDW - Chicago, Illinois, USA
Distance from station: NE 25mi, 39km
Updated: Sat, 21-Jul-2018 3:53pm CDT
Light rain, Overcast
Light rain, Overcast
 Wind from N
Wind: N 15 mph , 24 km/h, Gust: 25 mph , 41 km/h
Temperature: 73°F , 23°C
Dew Point: 66°F , 19°C
Humidity: 78%
Barometer: 29.78 inHg , 1008.5 hPa
Summary: Light rain
Clouds: Overcast
Visibility: 8 miles , 13 km
Cloud details: Mostly cloudy 2200 ft
Overcast 3700 ft
2018/07/21 20:53 KMDW 212053Z 35013G22KT 8SM -RA BKN022 OVC037 23/19 A2978 RMK AO2 RAB52 SLP076 P0000 60000 T02330189 53008 $
KDPA - Chicago/Dupage, Illinois, USA
Distance from station: NNW 26mi, 42km
Updated: Sat, 21-Jul-2018 3:52pm CDT
Partly cloudy
Partly cloudy
 Wind from NNW
Wind: NNW 20 mph , 31 km/h, Gust: 31 mph , 50 km/h
Temperature: 81°F , 27°C
Heat Index: 83°F , 28°C
Dew Point: 64°F , 18°C
Humidity: 58%
Barometer: 29.78 inHg , 1008.5 hPa
Clouds: Partly cloudy
Visibility: 10 miles , 16 km
Cloud details: Few Clouds 3800 ft
Few Clouds 5000 ft
Partly cloudy 6000 ft
2018/07/21 20:52 KDPA 212052Z 34017G27KT 10SM FEW038 FEW050 SCT060 27/18 A2978 RMK AO2 PK WND 34027/2050 SLP080 T02670183 53002
 
KIGQ - Chicago/Lansing, Illinois, USA
Distance from station: E 30mi, 48km
Updated: Sat, 21-Jul-2018 3:55pm CDT
Overcast
Overcast
 Wind from N
Wind: N 13 mph , 20 km/h, Gust: 22 mph , 35 km/h
Temperature: 73°F , 23°C
Dew Point: 68°F , 20°C
Humidity: 83%
Barometer: 29.78 inHg , 1008.5 hPa
Clouds: Overcast
Cloud details: Overcast 1600 ft
2018/07/21 20:55 KIGQ 212055Z AUTO 36011G19KT OVC016 23/20 A2978 RMK AO2 T02250203 PWINO
KORD - Chicago O'hare, Illinois, USA
Distance from station: NNE 31mi, 50km
Updated: Sat, 21-Jul-2018 3:51pm CDT
Overcast
Overcast
 Wind from N
Wind: N 10 mph , 17 km/h
Temperature: 73°F , 23°C
Dew Point: 68°F , 20°C
Humidity: 83%
Barometer: 29.78 inHg , 1008.5 hPa
Clouds: Overcast
Visibility: 10 miles , 16 km
Cloud details: Few Clouds 2000 ft
Mostly cloudy 3500 ft
Overcast 5000 ft
2018/07/21 20:51 KORD 212051Z 01009KT 10SM FEW020 BKN035 OVC050 23/20 A2978 RMK AO2 RAE25 SLP081 P0003 60004 T02330200 53007 $
 
KGYY - Gary Regional, Indiana, USA
Distance from station: E 36mi, 58km
Updated: Sat, 21-Jul-2018 3:45pm CDT
Light rain, Overcast
Light rain, Overcast
 Wind from NNW
Wind: NNW 14 mph , 22 km/h, Gust: 21 mph , 33 km/h
Temperature: 72°F , 22°C
Dew Point: 70°F , 21°C
Humidity: 94%
Barometer: 29.78 inHg , 1008.5 hPa
Summary: Light rain
Clouds: Overcast
Visibility: 3 miles , 5 km
Cloud details: Overcast 900 ft
2018/07/21 20:45 KGYY 212045Z 34012G18KT 3SM -RA OVC009 22/21 A2978
KIKK - Kankakee, Illinois, USA
Distance from station: SSE 36mi, 58km
Updated: Sat, 21-Jul-2018 3:55pm CDT
Overcast
Overcast
 Wind from NNE
Wind: NNE 18 mph , 30 km/h, Gust: 24 mph , 39 km/h
Temperature: 75°F , 24°C
Dew Point: 66°F , 19°C
Humidity: 74%
Barometer: 29.78 inHg , 1008.5 hPa
Clouds: Overcast
Visibility: 10 miles , 16 km
Cloud details: Mostly cloudy 2900 ft
Mostly cloudy 3600 ft
Overcast 5000 ft
2018/07/21 20:55 KIKK 212055Z AUTO 03016G21KT 10SM BKN029 BKN036 OVC050 24/19 A2978 RMK AO2 LTG DSNT SE T02420188
 
KDKB - De Kalb, Illinois, USA
Distance from station: NW 40mi, 65km
Updated: Sat, 21-Jul-2018 3:55pm CDT
Overcast
Overcast
 Wind from N
Wind: N 18 mph , 30 km/h, Gust: 24 mph , 39 km/h
Temperature: 77°F , 25°C
Dew Point: 66°F , 19°C
Humidity: 69%
Barometer: 29.83 inHg , 1010.2 hPa
Clouds: Overcast
Visibility: 10 miles , 16 km
Cloud details: Mostly cloudy 3300 ft
Mostly cloudy 4900 ft
Overcast 7000 ft
2018/07/21 20:55 KDKB 212055Z AUTO 35016G21KT 10SM BKN033 BKN049 OVC070 25/19 A2983 RMK AO2 T02530193
KPWK - Palwaukee, Illinois, USA
Distance from station: NNE 41mi, 65km
Updated: Sat, 21-Jul-2018 4:01pm CDT
Overcast
Overcast
 Wind from NNE
Wind: NNE 8 mph , 13 km/h
Temperature: 75°F , 24°C
Dew Point: 70°F , 21°C
Humidity: 83%
Barometer: 29.79 inHg , 1008.8 hPa
Clouds: Overcast
Visibility: 10 miles , 16 km
Cloud details: Partly cloudy 2200 ft
Mostly cloudy 2900 ft
Overcast 5500 ft
2018/07/21 21:01 KPWK 212101Z 02007KT 10SM SCT022 BKN029 OVC055 24/21 A2979 RMK AO2 T02390211